sensor_id;sensor_type;location;lat;lon;timestamp;temperature;humidity
15556;DHT22;7879;48.660;9.116;2023-02-10T00:00:15;-4.40;99.90
15556;DHT22;7879;48.660;9.116;2023-02-10T00:02:42;-4.40;99.90
15556;DHT22;7879;48.660;9.116;2023-02-10T00:05:08;-4.40;99.90
15556;DHT22;7879;48.660;9.116;2023-02-10T00:07:35;-4.40;99.90
15556;DHT22;7879;48.660;9.116;2023-02-10T00:10:02;-4.40;99.90
15556;DHT22;7879;48.660;9.116;2023-02-10T00:12:29;-4.50;99.90
15556;DHT22;7879;48.660;9.116;2023-02-10T00:14:56;-4.50;99.90
15556;DHT22;7879;48.660;9.116;2023-02-10T00:17:23;-4.60;99.90
15556;DHT22;7879;48.660;9.116;2023-02-10T00:19:49;-4.60;99.90
15556;DHT22;7879;48.660;9.116;2023-02-10T00:22:16;-4.60;99.90
15556;DHT22;7879;48.660;9.116;2023-02-10T00:24:43;-4.60;99.90
15556;DHT22;7879;48.660;9.116;2023-02-10T00:27:10;-4.60;99.90
15556;DHT22;7879;48.660;9.116;2023-02-10T00:29:36;-4.60;99.90
15556;DHT22;7879;48.660;9.116;2023-02-10T00:32:03;-4.60;99.90
15556;DHT22;7879;48.660;9.116;2023-02-10T00:34:30;-4.60;99.90
15556;DHT22;7879;48.660;9.116;2023-02-10T00:36:57;-4.80;99.90
15556;DHT22;7879;48.660;9.116;2023-02-10T00:39:24;-4.80;99.90
15556;DHT22;7879;48.660;9.116;2023-02-10T00:41:50;-4.80;99.90
15556;DHT22;7879;48.660;9.116;2023-02-10T00:44:17;-4.80;99.90
15556;DHT22;7879;48.660;9.116;2023-02-10T00:46:44;-4.80;99.90
15556;DHT22;7879;48.660;9.116;2023-02-10T00:49:11;-4.80;99.90
15556;DHT22;7879;48.660;9.116;2023-02-10T00:51:38;-4.90;99.90
15556;DHT22;7879;48.660;9.116;2023-02-10T00:54:05;-5.00;99.90
15556;DHT22;7879;48.660;9.116;2023-02-10T00:56:32;-5.00;99.90
15556;DHT22;7879;48.660;9.116;2023-02-10T00:58:59;-5.10;99.90
15556;DHT22;7879;48.660;9.116;2023-02-10T01:01:25;-5.20;99.90
15556;DHT22;7879;48.660;9.116;2023-02-10T01:03:52;-5.10;99.90
15556;DHT22;7879;48.660;9.116;2023-02-10T01:06:19;-5.00;99.90
15556;DHT22;7879;48.660;9.116;2023-02-10T01:08:47;-5.10;99.90
15556;DHT22;7879;48.660;9.116;2023-02-10T01:11:15;-5.10;99.90
15556;DHT22;7879;48.660;9.116;2023-02-10T01:13:43;-5.10;99.90
15556;DHT22;7879;48.660;9.116;2023-02-10T01:16:13;-5.10;99.90
15556;DHT22;7879;48.660;9.116;2023-02-10T01:18:41;-5.20;99.90
15556;DHT22;7879;48.660;9.116;2023-02-10T01:21:10;-5.20;99.90
15556;DHT22;7879;48.660;9.116;2023-02-10T01:23:38;-5.20;99.90
15556;DHT22;7879;48.660;9.116;2023-02-10T01:26:06;-5.30;99.90
15556;DHT22;7879;48.660;9.116;2023-02-10T01:28:33;-5.30;99.90
15556;DHT22;7879;48.660;9.116;2023-02-10T01:31:05;-5.30;99.90
15556;DHT22;7879;48.660;9.116;2023-02-10T01:33:32;-5.30;99.90
15556;DHT22;7879;48.660;9.116;2023-02-10T01:36:03;-5.40;99.90
15556;DHT22;7879;48.660;9.116;2023-02-10T01:38:31;-5.50;99.90
15556;DHT22;7879;48.660;9.116;2023-02-10T01:41:00;-5.40;99.90
15556;DHT22;7879;48.660;9.116;2023-02-10T01:43:27;-5.40;99.90
15556;DHT22;7879;48.660;9.116;2023-02-10T01:45:54;-5.40;99.90
15556;DHT22;7879;48.660;9.116;2023-02-10T01:48:22;-5.40;99.90
15556;DHT22;7879;48.660;9.116;2023-02-10T01:50:57;-5.40;99.90
15556;DHT22;7879;48.660;9.116;2023-02-10T01:53:26;-5.40;99.90
15556;DHT22;7879;48.660;9.116;2023-02-10T01:55:55;-5.50;99.90
15556;DHT22;7879;48.660;9.116;2023-02-10T01:58:26;-5.60;99.90
15556;DHT22;7879;48.660;9.116;2023-02-10T02:00:53;-5.60;99.90
15556;DHT22;7879;48.660;9.116;2023-02-10T02:03:20;-5.50;99.90
15556;DHT22;7879;48.660;9.116;2023-02-10T02:05:46;-5.50;99.90
15556;DHT22;7879;48.660;9.116;2023-02-10T02:08:24;-5.50;99.90
15556;DHT22;7879;48.660;9.116;2023-02-10T02:11:03;-5.60;99.90
15556;DHT22;7879;48.660;9.116;2023-02-10T02:16:43;-5.60;99.90
15556;DHT22;7879;48.660;9.116;2023-02-10T02:25:40;-5.70;99.90
15556;DHT22;7879;48.660;9.116;2023-02-10T02:33:16;-5.90;99.90
15556;DHT22;7879;48.660;9.116;2023-02-10T02:36:08;-5.90;99.90
15556;DHT22;7879;48.660;9.116;2023-02-10T02:38:40;-6.00;99.90
15556;DHT22;7879;48.660;9.116;2023-02-10T02:41:08;-5.90;99.90
15556;DHT22;7879;48.660;9.116;2023-02-10T02:43:36;-5.90;99.90
15556;DHT22;7879;48.660;9.116;2023-02-10T02:46:24;-5.90;99.90
15556;DHT22;7879;48.660;9.116;2023-02-10T02:52:00;-6.00;99.90
15556;DHT22;7879;48.660;9.116;2023-02-10T02:55:52;-6.00;99.90
15556;DHT22;7879;48.660;9.116;2023-02-10T02:57:52;-6.00;99.90
15556;DHT22;7879;48.660;9.116;2023-02-10T03:00:27;-6.10;99.90
15556;DHT22;7879;48.660;9.116;2023-02-10T03:02:57;-6.20;99.90
15556;DHT22;7879;48.660;9.116;2023-02-10T03:05:33;-6.20;99.90
15556;DHT22;7879;48.660;9.116;2023-02-10T03:08:01;-6.30;99.90
15556;DHT22;7879;48.660;9.116;2023-02-10T03:10:28;-6.30;99.90
15556;DHT22;7879;48.660;9.116;2023-02-10T03:12:55;-6.30;99.90
15556;DHT22;7879;48.660;9.116;2023-02-10T03:15:21;-6.30;99.90
15556;DHT22;7879;48.660;9.116;2023-02-10T03:17:48;-6.30;99.90
15556;DHT22;7879;48.660;9.116;2023-02-10T03:20:15;-6.30;99.90
15556;DHT22;7879;48.660;9.116;2023-02-10T03:22:42;-6.20;99.90
15556;DHT22;7879;48.660;9.116;2023-02-10T03:25:09;-6.30;99.90
15556;DHT22;7879;48.660;9.116;2023-02-10T03:27:36;-6.30;99.90
15556;DHT22;7879;48.660;9.116;2023-02-10T03:30:03;-6.30;99.90
15556;DHT22;7879;48.660;9.116;2023-02-10T03:32:30;-6.30;99.90
15556;DHT22;7879;48.660;9.116;2023-02-10T03:34:57;-6.30;99.90
15556;DHT22;7879;48.660;9.116;2023-02-10T03:37:23;-6.30;99.90
15556;DHT22;7879;48.660;9.116;2023-02-10T03:39:50;-6.30;99.90
15556;DHT22;7879;48.660;9.116;2023-02-10T03:42:17;-6.40;99.90
15556;DHT22;7879;48.660;9.116;2023-02-10T03:44:44;-6.40;99.90
15556;DHT22;7879;48.660;9.116;2023-02-10T03:47:11;-6.30;99.90
15556;DHT22;7879;48.660;9.116;2023-02-10T03:49:37;-6.40;99.90
15556;DHT22;7879;48.660;9.116;2023-02-10T03:52:04;-6.40;99.90
15556;DHT22;7879;48.660;9.116;2023-02-10T03:54:31;-6.40;99.90
15556;DHT22;7879;48.660;9.116;2023-02-10T03:56:58;-6.50;99.90
15556;DHT22;7879;48.660;9.116;2023-02-10T03:59:25;-6.40;99.90
15556;DHT22;7879;48.660;9.116;2023-02-10T04:01:51;-6.50;99.90
15556;DHT22;7879;48.660;9.116;2023-02-10T04:04:18;-6.50;99.90
15556;DHT22;7879;48.660;9.116;2023-02-10T04:06:45;-6.50;99.90
15556;DHT22;7879;48.660;9.116;2023-02-10T04:09:12;-6.60;99.90
15556;DHT22;7879;48.660;9.116;2023-02-10T04:11:39;-6.60;99.90
15556;DHT22;7879;48.660;9.116;2023-02-10T04:14:06;-6.60;99.90
15556;DHT22;7879;48.660;9.116;2023-02-10T04:16:33;-6.60;99.90
15556;DHT22;7879;48.660;9.116;2023-02-10T04:19:00;-6.60;99.90
15556;DHT22;7879;48.660;9.116;2023-02-10T04:21:26;-6.70;99.90
15556;DHT22;7879;48.660;9.116;2023-02-10T04:23:53;-6.70;99.90
15556;DHT22;7879;48.660;9.116;2023-02-10T04:26:22;-6.70;99.90
15556;DHT22;7879;48.660;9.116;2023-02-10T04:28:49;-6.70;99.90
15556;DHT22;7879;48.660;9.116;2023-02-10T04:31:16;-6.70;99.90
15556;DHT22;7879;48.660;9.116;2023-02-10T04:33:44;-6.70;99.90
15556;DHT22;7879;48.660;9.116;2023-02-10T04:36:11;-6.80;99.90
15556;DHT22;7879;48.660;9.116;2023-02-10T04:38:37;-6.70;99.90
15556;DHT22;7879;48.660;9.116;2023-02-10T04:41:04;-6.70;99.90
15556;DHT22;7879;48.660;9.116;2023-02-10T04:43:32;-6.70;99.90
15556;DHT22;7879;48.660;9.116;2023-02-10T04:45:59;-6.70;99.90
15556;DHT22;7879;48.660;9.116;2023-02-10T04:48:26;-6.80;99.90
15556;DHT22;7879;48.660;9.116;2023-02-10T04:50:53;-6.90;99.90
15556;DHT22;7879;48.660;9.116;2023-02-10T04:53:20;-6.90;99.90
15556;DHT22;7879;48.660;9.116;2023-02-10T04:55:47;-7.00;99.90
15556;DHT22;7879;48.660;9.116;2023-02-10T04:58:14;-7.00;99.90
15556;DHT22;7879;48.660;9.116;2023-02-10T05:00:41;-6.90;99.90
15556;DHT22;7879;48.660;9.116;2023-02-10T05:03:08;-7.00;99.90
15556;DHT22;7879;48.660;9.116;2023-02-10T05:05:35;-6.90;99.90
15556;DHT22;7879;48.660;9.116;2023-02-10T05:08:01;-6.90;99.90
15556;DHT22;7879;48.660;9.116;2023-02-10T05:10:28;-6.90;99.90
15556;DHT22;7879;48.660;9.116;2023-02-10T05:12:55;-7.00;99.90
15556;DHT22;7879;48.660;9.116;2023-02-10T05:15:22;-7.00;99.90
15556;DHT22;7879;48.660;9.116;2023-02-10T05:17:49;-7.00;99.90
15556;DHT22;7879;48.660;9.116;2023-02-10T05:20:15;-6.90;99.90
15556;DHT22;7879;48.660;9.116;2023-02-10T05:22:42;-7.00;99.90
15556;DHT22;7879;48.660;9.116;2023-02-10T05:25:09;-7.10;99.90
15556;DHT22;7879;48.660;9.116;2023-02-10T05:27:36;-7.10;99.90
15556;DHT22;7879;48.660;9.116;2023-02-10T05:30:05;-7.10;99.90
15556;DHT22;7879;48.660;9.116;2023-02-10T05:32:33;-7.10;99.90
15556;DHT22;7879;48.660;9.116;2023-02-10T05:35:00;-7.10;99.90
15556;DHT22;7879;48.660;9.116;2023-02-10T05:37:26;-7.00;99.90
15556;DHT22;7879;48.660;9.116;2023-02-10T05:39:53;-7.10;99.90
15556;DHT22;7879;48.660;9.116;2023-02-10T05:42:20;-7.10;99.90
15556;DHT22;7879;48.660;9.116;2023-02-10T05:44:47;-7.10;99.90
15556;DHT22;7879;48.660;9.116;2023-02-10T05:47:13;-7.20;99.90
15556;DHT22;7879;48.660;9.116;2023-02-10T05:49:40;-7.10;99.90
15556;DHT22;7879;48.660;9.116;2023-02-10T05:52:07;-7.20;99.90
15556;DHT22;7879;48.660;9.116;2023-02-10T05:54:34;-7.20;99.90
15556;DHT22;7879;48.660;9.116;2023-02-10T05:57:01;-7.20;99.90
15556;DHT22;7879;48.660;9.116;2023-02-10T05:59:28;-7.20;99.90
15556;DHT22;7879;48.660;9.116;2023-02-10T06:01:55;-7.20;99.90
15556;DHT22;7879;48.660;9.116;2023-02-10T06:04:22;-7.30;99.90
15556;DHT22;7879;48.660;9.116;2023-02-10T06:06:49;-7.30;99.90
15556;DHT22;7879;48.660;9.116;2023-02-10T06:09:16;-7.40;99.90
15556;DHT22;7879;48.660;9.116;2023-02-10T06:11:43;-7.40;99.90
15556;DHT22;7879;48.660;9.116;2023-02-10T06:14:09;-7.30;99.90
15556;DHT22;7879;48.660;9.116;2023-02-10T06:16:36;-7.30;99.90
15556;DHT22;7879;48.660;9.116;2023-02-10T06:19:03;-7.30;99.90
15556;DHT22;7879;48.660;9.116;2023-02-10T06:21:30;-7.40;99.90
15556;DHT22;7879;48.660;9.116;2023-02-10T06:23:57;-7.40;99.90
15556;DHT22;7879;48.660;9.116;2023-02-10T06:26:24;-7.50;99.90
15556;DHT22;7879;48.660;9.116;2023-02-10T06:28:51;-7.50;99.90
15556;DHT22;7879;48.660;9.116;2023-02-10T06:31:18;-7.50;99.90
15556;DHT22;7879;48.660;9.116;2023-02-10T06:33:45;-7.50;99.90
15556;DHT22;7879;48.660;9.116;2023-02-10T06:36:12;-7.50;99.90
15556;DHT22;7879;48.660;9.116;2023-02-10T06:38:39;-7.50;99.90
15556;DHT22;7879;48.660;9.116;2023-02-10T06:41:06;-7.50;99.90
15556;DHT22;7879;48.660;9.116;2023-02-10T06:43:33;-7.40;99.90
15556;DHT22;7879;48.660;9.116;2023-02-10T06:46:00;-7.40;99.90
15556;DHT22;7879;48.660;9.116;2023-02-10T06:48:27;-7.40;99.90
15556;DHT22;7879;48.660;9.116;2023-02-10T06:50:54;-7.40;99.90
15556;DHT22;7879;48.660;9.116;2023-02-10T06:53:21;-7.40;99.90
15556;DHT22;7879;48.660;9.116;2023-02-10T06:55:48;-7.40;99.90
15556;DHT22;7879;48.660;9.116;2023-02-10T06:58:15;-7.30;99.90
15556;DHT22;7879;48.660;9.116;2023-02-10T07:00:43;-7.40;99.90
15556;DHT22;7879;48.660;9.116;2023-02-10T07:03:12;-7.40;99.90
15556;DHT22;7879;48.660;9.116;2023-02-10T07:05:40;-7.50;99.90
15556;DHT22;7879;48.660;9.116;2023-02-10T07:08:08;-7.50;99.90
15556;DHT22;7879;48.660;9.116;2023-02-10T07:10:34;-7.40;99.90
15556;DHT22;7879;48.660;9.116;2023-02-10T07:13:01;-7.50;99.90
15556;DHT22;7879;48.660;9.116;2023-02-10T07:15:28;-7.50;99.90
15556;DHT22;7879;48.660;9.116;2023-02-10T07:17:55;-7.40;99.90
15556;DHT22;7879;48.660;9.116;2023-02-10T07:20:23;-7.50;99.90
15556;DHT22;7879;48.660;9.116;2023-02-10T07:22:50;-7.40;99.90
15556;DHT22;7879;48.660;9.116;2023-02-10T07:25:18;-7.40;99.90
15556;DHT22;7879;48.660;9.116;2023-02-10T07:27:45;-7.30;99.90
15556;DHT22;7879;48.660;9.116;2023-02-10T07:30:12;-7.40;99.90
15556;DHT22;7879;48.660;9.116;2023-02-10T07:32:39;-7.40;99.90
15556;DHT22;7879;48.660;9.116;2023-02-10T07:35:08;-7.40;99.90
15556;DHT22;7879;48.660;9.116;2023-02-10T07:37:36;-7.30;99.90
15556;DHT22;7879;48.660;9.116;2023-02-10T07:40:03;-7.30;99.90
15556;DHT22;7879;48.660;9.116;2023-02-10T07:42:30;-7.20;99.90
15556;DHT22;7879;48.660;9.116;2023-02-10T07:44:58;-7.10;99.90
15556;DHT22;7879;48.660;9.116;2023-02-10T07:47:25;-7.00;99.90
15556;DHT22;7879;48.660;9.116;2023-02-10T07:49:52;-6.90;99.90
15556;DHT22;7879;48.660;9.116;2023-02-10T07:52:24;-6.90;99.90
15556;DHT22;7879;48.660;9.116;2023-02-10T07:54:51;-6.80;99.90
15556;DHT22;7879;48.660;9.116;2023-02-10T07:57:17;-6.70;99.90
15556;DHT22;7879;48.660;9.116;2023-02-10T07:59:44;-6.70;99.90
15556;DHT22;7879;48.660;9.116;2023-02-10T08:02:11;-6.60;99.90
15556;DHT22;7879;48.660;9.116;2023-02-10T08:04:39;-6.40;99.90
15556;DHT22;7879;48.660;9.116;2023-02-10T08:07:05;-6.40;99.90
15556;DHT22;7879;48.660;9.116;2023-02-10T08:09:32;-6.30;99.90
15556;DHT22;7879;48.660;9.116;2023-02-10T08:11:59;-6.20;99.90
15556;DHT22;7879;48.660;9.116;2023-02-10T08:14:26;-6.20;99.90
15556;DHT22;7879;48.660;9.116;2023-02-10T08:16:53;-6.10;99.90
15556;DHT22;7879;48.660;9.116;2023-02-10T08:19:19;-6.00;99.90
15556;DHT22;7879;48.660;9.116;2023-02-10T08:21:46;-5.90;99.90
15556;DHT22;7879;48.660;9.116;2023-02-10T08:24:13;-5.80;99.90
15556;DHT22;7879;48.660;9.116;2023-02-10T08:26:40;-5.70;99.90
15556;DHT22;7879;48.660;9.116;2023-02-10T08:29:08;-5.70;99.90
15556;DHT22;7879;48.660;9.116;2023-02-10T08:31:35;-5.70;99.90
15556;DHT22;7879;48.660;9.116;2023-02-10T08:34:02;-5.60;99.90
15556;DHT22;7879;48.660;9.116;2023-02-10T08:36:29;-5.50;99.90
15556;DHT22;7879;48.660;9.116;2023-02-10T08:38:57;-5.40;99.90
15556;DHT22;7879;48.660;9.116;2023-02-10T08:41:24;-5.30;99.90
15556;DHT22;7879;48.660;9.116;2023-02-10T08:43:52;-5.20;99.90
15556;DHT22;7879;48.660;9.116;2023-02-10T08:46:19;-5.10;99.90
15556;DHT22;7879;48.660;9.116;2023-02-10T08:48:46;-5.10;99.90
15556;DHT22;7879;48.660;9.116;2023-02-10T08:51:14;-5.00;99.90
15556;DHT22;7879;48.660;9.116;2023-02-10T08:53:41;-4.90;99.90
15556;DHT22;7879;48.660;9.116;2023-02-10T08:56:12;-4.90;99.90
15556;DHT22;7879;48.660;9.116;2023-02-10T08:58:39;-4.80;99.90
15556;DHT22;7879;48.660;9.116;2023-02-10T09:01:12;-4.70;99.90
15556;DHT22;7879;48.660;9.116;2023-02-10T09:03:40;-4.50;99.90
15556;DHT22;7879;48.660;9.116;2023-02-10T09:06:13;-4.50;99.90
15556;DHT22;7879;48.660;9.116;2023-02-10T09:08:42;-4.30;99.90
15556;DHT22;7879;48.660;9.116;2023-02-10T09:11:11;-4.20;99.90
15556;DHT22;7879;48.660;9.116;2023-02-10T09:13:37;-4.00;99.90
15556;DHT22;7879;48.660;9.116;2023-02-10T09:16:05;-3.90;99.90
15556;DHT22;7879;48.660;9.116;2023-02-10T09:18:32;-3.80;99.90
15556;DHT22;7879;48.660;9.116;2023-02-10T09:21:00;-3.50;99.90
15556;DHT22;7879;48.660;9.116;2023-02-10T09:23:27;-3.40;99.90
15556;DHT22;7879;48.660;9.116;2023-02-10T09:25:56;-3.20;99.90
15556;DHT22;7879;48.660;9.116;2023-02-10T09:28:23;-3.10;99.90
15556;DHT22;7879;48.660;9.116;2023-02-10T09:30:51;-2.90;99.90
15556;DHT22;7879;48.660;9.116;2023-02-10T09:33:18;-2.70;99.90
15556;DHT22;7879;48.660;9.116;2023-02-10T09:35:44;-2.50;99.90
15556;DHT22;7879;48.660;9.116;2023-02-10T09:38:13;-2.30;99.90
15556;DHT22;7879;48.660;9.116;2023-02-10T09:45:47;-1.70;99.90
15556;DHT22;7879;48.660;9.116;2023-02-10T09:48:32;-1.50;99.90
15556;DHT22;7879;48.660;9.116;2023-02-10T09:51:28;-1.30;99.90
15556;DHT22;7879;48.660;9.116;2023-02-10T09:54:00;-1.00;99.90
15556;DHT22;7879;48.660;9.116;2023-02-10T09:56:27;-0.80;99.90
15556;DHT22;7879;48.660;9.116;2023-02-10T09:58:56;-0.60;99.90
15556;DHT22;7879;48.660;9.116;2023-02-10T10:01:35;-0.20;99.90
15556;DHT22;7879;48.660;9.116;2023-02-10T10:04:19;0.00;99.90
15556;DHT22;7879;48.660;9.116;2023-02-10T10:06:54;0.40;99.90
15556;DHT22;7879;48.660;9.116;2023-02-10T10:09:42;0.50;99.90
15556;DHT22;7879;48.660;9.116;2023-02-10T10:12:15;0.90;99.90
15556;DHT22;7879;48.660;9.116;2023-02-10T10:14:43;1.10;99.90
15556;DHT22;7879;48.660;9.116;2023-02-10T10:20:34;1.60;99.90
15556;DHT22;7879;48.660;9.116;2023-02-10T10:33:58;2.70;99.90
15556;DHT22;7879;48.660;9.116;2023-02-10T10:36:33;2.80;99.90
15556;DHT22;7879;48.660;9.116;2023-02-10T10:39:55;2.80;99.90
15556;DHT22;7879;48.660;9.116;2023-02-10T10:44:47;3.30;99.90
15556;DHT22;7879;48.660;9.116;2023-02-10T10:47:25;3.60;99.90
15556;DHT22;7879;48.660;9.116;2023-02-10T10:49:55;3.80;99.90
15556;DHT22;7879;48.660;9.116;2023-02-10T10:52:26;3.90;99.90
15556;DHT22;7879;48.660;9.116;2023-02-10T10:54:58;4.00;99.90
15556;DHT22;7879;48.660;9.116;2023-02-10T10:57:27;4.10;99.90
15556;DHT22;7879;48.660;9.116;2023-02-10T11:00:04;4.20;99.90
15556;DHT22;7879;48.660;9.116;2023-02-10T11:02:36;4.50;99.90
15556;DHT22;7879;48.660;9.116;2023-02-10T11:05:05;4.40;99.90
15556;DHT22;7879;48.660;9.116;2023-02-10T11:07:33;4.30;99.90
15556;DHT22;7879;48.660;9.116;2023-02-10T11:10:00;4.40;99.90
15556;DHT22;7879;48.660;9.116;2023-02-10T11:12:33;4.70;99.90
15556;DHT22;7879;48.660;9.116;2023-02-10T11:15:02;4.80;99.90
15556;DHT22;7879;48.660;9.116;2023-02-10T11:17:36;4.80;99.90
15556;DHT22;7879;48.660;9.116;2023-02-10T11:22:38;5.20;99.90
15556;DHT22;7879;48.660;9.116;2023-02-10T11:27:56;5.50;99.90
15556;DHT22;7879;48.660;9.116;2023-02-10T11:32:51;5.40;99.90
15556;DHT22;7879;48.660;9.116;2023-02-10T11:35:18;5.40;99.60
15556;DHT22;7879;48.660;9.116;2023-02-10T11:37:54;5.50;99.90
15556;DHT22;7879;48.660;9.116;2023-02-10T11:40:28;5.40;98.80
15556;DHT22;7879;48.660;9.116;2023-02-10T11:42:58;5.50;98.80
15556;DHT22;7879;48.660;9.116;2023-02-10T11:45:28;5.40;98.50
15556;DHT22;7879;48.660;9.116;2023-02-10T11:48:17;5.40;97.80
15556;DHT22;7879;48.660;9.116;2023-02-10T11:50:44;5.40;97.40
15556;DHT22;7879;48.660;9.116;2023-02-10T11:53:24;5.60;97.90
15556;DHT22;7879;48.660;9.116;2023-02-10T11:59:02;5.60;96.30
15556;DHT22;7879;48.660;9.116;2023-02-10T12:09:59;5.30;95.60
15556;DHT22;7879;48.660;9.116;2023-02-10T12:12:42;5.20;96.20
15556;DHT22;7879;48.660;9.116;2023-02-10T12:18:25;5.10;96.20
15556;DHT22;7879;48.660;9.116;2023-02-10T12:24:12;5.00;96.20
15556;DHT22;7879;48.660;9.116;2023-02-10T12:26:58;5.00;96.00
15556;DHT22;7879;48.660;9.116;2023-02-10T12:32:17;4.90;96.40
15556;DHT22;7879;48.660;9.116;2023-02-10T12:40:48;4.90;96.80
15556;DHT22;7879;48.660;9.116;2023-02-10T12:43:44;4.80;96.10
15556;DHT22;7879;48.660;9.116;2023-02-10T12:46:36;4.80;96.20
15556;DHT22;7879;48.660;9.116;2023-02-10T12:52:11;4.80;95.90
15556;DHT22;7879;48.660;9.116;2023-02-10T12:55:15;4.70;95.80
15556;DHT22;7879;48.660;9.116;2023-02-10T12:57:49;4.70;96.00
15556;DHT22;7879;48.660;9.116;2023-02-10T13:00:22;4.70;95.80
15556;DHT22;7879;48.660;9.116;2023-02-10T13:03:15;4.70;95.90
15556;DHT22;7879;48.660;9.116;2023-02-10T13:08:44;4.70;96.00
15556;DHT22;7879;48.660;9.116;2023-02-10T13:14:02;4.70;96.00
15556;DHT22;7879;48.660;9.116;2023-02-10T13:16:32;4.70;96.30
15556;DHT22;7879;48.660;9.116;2023-02-10T13:19:08;4.70;96.30
15556;DHT22;7879;48.660;9.116;2023-02-10T13:24:39;4.80;95.90
15556;DHT22;7879;48.660;9.116;2023-02-10T13:29:54;4.80;96.40
15556;DHT22;7879;48.660;9.116;2023-02-10T13:32:37;4.80;96.20
15556;DHT22;7879;48.660;9.116;2023-02-10T13:35:14;4.80;95.80
15556;DHT22;7879;48.660;9.116;2023-02-10T13:37:45;4.80;95.60
15556;DHT22;7879;48.660;9.116;2023-02-10T13:40:26;4.90;95.70
15556;DHT22;7879;48.660;9.116;2023-02-10T13:43:02;4.80;95.60
15556;DHT22;7879;48.660;9.116;2023-02-10T13:45:35;4.90;95.90
15556;DHT22;7879;48.660;9.116;2023-02-10T13:48:27;4.80;95.60
15556;DHT22;7879;48.660;9.116;2023-02-10T13:50:59;4.90;95.30
15556;DHT22;7879;48.660;9.116;2023-02-10T13:56:04;4.90;97.00
15556;DHT22;7879;48.660;9.116;2023-02-10T13:58:52;4.90;97.00
15556;DHT22;7879;48.660;9.116;2023-02-10T14:01:49;4.90;97.20
15556;DHT22;7879;48.660;9.116;2023-02-10T14:06:48;4.90;97.40
15556;DHT22;7879;48.660;9.116;2023-02-10T14:12:00;4.90;97.20
15556;DHT22;7879;48.660;9.116;2023-02-10T14:14:29;4.90;97.20
15556;DHT22;7879;48.660;9.116;2023-02-10T14:17:06;4.90;97.30
15556;DHT22;7879;48.660;9.116;2023-02-10T14:19:39;4.90;97.60
15556;DHT22;7879;48.660;9.116;2023-02-10T14:22:18;4.90;97.40
15556;DHT22;7879;48.660;9.116;2023-02-10T14:24:47;4.80;97.40
15556;DHT22;7879;48.660;9.116;2023-02-10T14:27:18;4.80;97.60
15556;DHT22;7879;48.660;9.116;2023-02-10T14:29:53;4.80;97.70
15556;DHT22;7879;48.660;9.116;2023-02-10T14:32:21;4.80;97.80
15556;DHT22;7879;48.660;9.116;2023-02-10T14:34:56;4.80;97.70
15556;DHT22;7879;48.660;9.116;2023-02-10T14:37:24;4.90;97.50
15556;DHT22;7879;48.660;9.116;2023-02-10T14:39:53;4.80;97.70
15556;DHT22;7879;48.660;9.116;2023-02-10T14:42:21;4.80;97.70
15556;DHT22;7879;48.660;9.116;2023-02-10T14:44:50;4.80;97.90
15556;DHT22;7879;48.660;9.116;2023-02-10T14:47:20;4.80;97.90
15556;DHT22;7879;48.660;9.116;2023-02-10T14:49:51;4.70;98.10
15556;DHT22;7879;48.660;9.116;2023-02-10T14:52:25;4.70;98.30
15556;DHT22;7879;48.660;9.116;2023-02-10T14:55:23;4.70;98.80
15556;DHT22;7879;48.660;9.116;2023-02-10T14:57:50;4.70;98.60
15556;DHT22;7879;48.660;9.116;2023-02-10T15:00:18;4.60;98.00
15556;DHT22;7879;48.660;9.116;2023-02-10T15:02:56;4.60;98.10
15556;DHT22;7879;48.660;9.116;2023-02-10T15:05:26;4.60;98.20
15556;DHT22;7879;48.660;9.116;2023-02-10T15:07:57;4.50;98.50
15556;DHT22;7879;48.660;9.116;2023-02-10T15:10:37;4.50;98.70
15556;DHT22;7879;48.660;9.116;2023-02-10T15:13:08;4.50;98.60
15556;DHT22;7879;48.660;9.116;2023-02-10T15:15:39;4.40;98.50
15556;DHT22;7879;48.660;9.116;2023-02-10T15:18:12;4.40;98.40
15556;DHT22;7879;48.660;9.116;2023-02-10T15:21:00;4.40;98.20
15556;DHT22;7879;48.660;9.116;2023-02-10T15:23:28;4.30;98.20
15556;DHT22;7879;48.660;9.116;2023-02-10T15:26:22;4.30;98.50
15556;DHT22;7879;48.660;9.116;2023-02-10T15:29:09;4.40;98.50
15556;DHT22;7879;48.660;9.116;2023-02-10T15:31:37;4.40;98.30
15556;DHT22;7879;48.660;9.116;2023-02-10T15:34:18;4.30;98.50
15556;DHT22;7879;48.660;9.116;2023-02-10T15:36:48;4.30;98.70
15556;DHT22;7879;48.660;9.116;2023-02-10T15:39:20;4.30;98.40
15556;DHT22;7879;48.660;9.116;2023-02-10T15:44:24;4.20;98.40
15556;DHT22;7879;48.660;9.116;2023-02-10T15:49:44;4.20;98.90
15556;DHT22;7879;48.660;9.116;2023-02-10T15:52:42;4.20;99.10
15556;DHT22;7879;48.660;9.116;2023-02-10T15:55:49;4.10;99.20
15556;DHT22;7879;48.660;9.116;2023-02-10T15:58:10;4.10;99.10
15556;DHT22;7879;48.660;9.116;2023-02-10T16:00:39;4.10;99.40
15556;DHT22;7879;48.660;9.116;2023-02-10T16:03:06;4.00;99.70
15556;DHT22;7879;48.660;9.116;2023-02-10T16:05:35;4.00;99.60
15556;DHT22;7879;48.660;9.116;2023-02-10T16:10:43;3.90;99.70
15556;DHT22;7879;48.660;9.116;2023-02-10T16:13:13;3.90;99.70
15556;DHT22;7879;48.660;9.116;2023-02-10T16:15:41;3.80;99.80
15556;DHT22;7879;48.660;9.116;2023-02-10T16:18:12;3.70;99.90
15556;DHT22;7879;48.660;9.116;2023-02-10T16:20:39;3.70;99.90
15556;DHT22;7879;48.660;9.116;2023-02-10T16:23:15;3.60;99.90
15556;DHT22;7879;48.660;9.116;2023-02-10T16:25:43;3.60;99.90
15556;DHT22;7879;48.660;9.116;2023-02-10T16:28:17;3.60;99.90
15556;DHT22;7879;48.660;9.116;2023-02-10T16:30:45;3.40;99.90
15556;DHT22;7879;48.660;9.116;2023-02-10T16:33:13;3.30;99.90
15556;DHT22;7879;48.660;9.116;2023-02-10T16:35:41;3.30;99.90
15556;DHT22;7879;48.660;9.116;2023-02-10T16:38:09;3.20;99.90
15556;DHT22;7879;48.660;9.116;2023-02-10T16:40:43;3.20;99.90
15556;DHT22;7879;48.660;9.116;2023-02-10T16:43:10;3.00;99.90
15556;DHT22;7879;48.660;9.116;2023-02-10T16:45:36;3.00;99.90
15556;DHT22;7879;48.660;9.116;2023-02-10T16:48:04;3.00;99.90
15556;DHT22;7879;48.660;9.116;2023-02-10T16:50:37;2.90;99.90
15556;DHT22;7879;48.660;9.116;2023-02-10T16:53:06;2.80;99.90
15556;DHT22;7879;48.660;9.116;2023-02-10T16:55:37;2.70;99.90
15556;DHT22;7879;48.660;9.116;2023-02-10T16:58:05;2.60;99.90
15556;DHT22;7879;48.660;9.116;2023-02-10T17:00:32;2.50;99.90
15556;DHT22;7879;48.660;9.116;2023-02-10T17:02:59;2.40;99.90
15556;DHT22;7879;48.660;9.116;2023-02-10T17:05:26;2.30;99.90
15556;DHT22;7879;48.660;9.116;2023-02-10T17:07:53;2.20;99.90
15556;DHT22;7879;48.660;9.116;2023-02-10T17:10:23;2.20;99.90
15556;DHT22;7879;48.660;9.116;2023-02-10T17:12:51;2.10;99.90
15556;DHT22;7879;48.660;9.116;2023-02-10T17:15:19;2.10;99.90
15556;DHT22;7879;48.660;9.116;2023-02-10T17:17:46;2.00;99.90
15556;DHT22;7879;48.660;9.116;2023-02-10T17:20:20;1.90;99.90
15556;DHT22;7879;48.660;9.116;2023-02-10T17:22:47;1.80;99.90
15556;DHT22;7879;48.660;9.116;2023-02-10T17:25:14;1.70;99.90
15556;DHT22;7879;48.660;9.116;2023-02-10T17:27:41;1.70;99.90
15556;DHT22;7879;48.660;9.116;2023-02-10T17:30:11;1.60;99.90
15556;DHT22;7879;48.660;9.116;2023-02-10T17:32:38;1.50;99.90
15556;DHT22;7879;48.660;9.116;2023-02-10T17:35:08;1.40;99.90
15556;DHT22;7879;48.660;9.116;2023-02-10T17:37:35;1.40;99.90
15556;DHT22;7879;48.660;9.116;2023-02-10T17:40:02;1.40;99.90
15556;DHT22;7879;48.660;9.116;2023-02-10T17:42:48;1.40;99.90
15556;DHT22;7879;48.660;9.116;2023-02-10T17:45:15;1.20;99.90
15556;DHT22;7879;48.660;9.116;2023-02-10T17:47:44;1.20;99.90
15556;DHT22;7879;48.660;9.116;2023-02-10T17:50:13;1.20;99.90
15556;DHT22;7879;48.660;9.116;2023-02-10T17:52:40;1.10;99.90
15556;DHT22;7879;48.660;9.116;2023-02-10T17:55:07;1.10;99.90